sensor_id;sensor_type;location;lat;lon;timestamp;pressure;altitude;pressure_sealevel;temperature;humidity
46111;BME280;31849;55.992;37.252;2023-06-22T00:03:41;99336.44;;;11.34;54.68
46111;BME280;31849;55.992;37.252;2023-06-22T00:08:45;99337.31;;;11.33;54.54
46111;BME280;31849;55.992;37.252;2023-06-22T00:13:50;99341.66;;;11.31;54.85
46111;BME280;31849;55.992;37.252;2023-06-22T00:18:54;99342.53;;;11.32;54.34
46111;BME280;31849;55.992;37.252;2023-06-22T00:23:57;99340.00;;;11.22;54.49
46111;BME280;31849;55.992;37.252;2023-06-22T00:29:02;99337.41;;;11.18;54.58
46111;BME280;31849;55.992;37.252;2023-06-22T00:34:06;99328.78;;;11.13;54.85
46111;BME280;31849;55.992;37.252;2023-06-22T00:39:10;99327.06;;;11.08;54.67
46111;BME280;31849;55.992;37.252;2023-06-22T00:44:15;99327.16;;;10.93;54.94
46111;BME280;31849;55.992;37.252;2023-06-22T00:49:19;99331.53;;;10.83;55.16
46111;BME280;31849;55.992;37.252;2023-06-22T00:54:23;99326.38;;;10.76;55.48
46111;BME280;31849;55.992;37.252;2023-06-22T00:59:30;99327.25;;;10.76;55.53
46111;BME280;31849;55.992;37.252;2023-06-22T01:04:36;99330.75;;;10.73;55.43
46111;BME280;31849;55.992;37.252;2023-06-22T01:09:45;99325.53;;;10.73;55.30
46111;BME280;31849;55.992;37.252;2023-06-22T01:15:03;99327.31;;;10.65;55.54
46111;BME280;31849;55.992;37.252;2023-06-22T01:20:09;99335.06;;;10.73;55.66
46111;BME280;31849;55.992;37.252;2023-06-22T01:25:19;99333.38;;;10.70;55.18
46111;BME280;31849;55.992;37.252;2023-06-22T01:30:25;99338.53;;;10.75;55.85
46111;BME280;31849;55.992;37.252;2023-06-22T01:35:30;99342.81;;;10.85;55.25
46111;BME280;31849;55.992;37.252;2023-06-22T01:40:34;99344.50;;;10.91;55.20
46111;BME280;31849;55.992;37.252;2023-06-22T01:45:39;99329.75;;;10.95;55.20
46111;BME280;31849;55.992;37.252;2023-06-22T01:50:43;99325.34;;;11.03;54.97
46111;BME280;31849;55.992;37.252;2023-06-22T01:55:47;99332.31;;;11.01;54.81
46111;BME280;31849;55.992;37.252;2023-06-22T02:00:56;99328.81;;;11.06;54.95
46111;BME280;31849;55.992;37.252;2023-06-22T02:06:04;99314.84;;;11.20;54.70
46111;BME280;31849;55.992;37.252;2023-06-22T02:11:09;99309.56;;;11.29;54.86
46111;BME280;31849;55.992;37.252;2023-06-22T02:16:17;99304.25;;;11.44;54.37
46111;BME280;31849;55.992;37.252;2023-06-22T02:21:21;99308.44;;;11.61;53.48
46111;BME280;31849;55.992;37.252;2023-06-22T02:26:25;99305.72;;;11.72;53.66
46111;BME280;31849;55.992;37.252;2023-06-22T02:31:31;99288.25;;;11.85;53.72
46111;BME280;31849;55.992;37.252;2023-06-22T02:36:34;99294.09;;;12.08;53.20
46111;BME280;31849;55.992;37.252;2023-06-22T02:41:38;99286.09;;;12.24;53.31
46111;BME280;31849;55.992;37.252;2023-06-22T02:46:43;99284.13;;;12.43;53.37
46111;BME280;31849;55.992;37.252;2023-06-22T02:51:47;99295.78;;;12.79;52.80
46111;BME280;31849;55.992;37.252;2023-06-22T02:56:51;99292.53;;;13.23;52.14
46111;BME280;31849;55.992;37.252;2023-06-22T03:01:57;99280.66;;;13.59;51.31
46111;BME280;31849;55.992;37.252;2023-06-22T03:07:00;99272.94;;;14.01;50.67
46111;BME280;31849;55.992;37.252;2023-06-22T03:12:05;99278.47;;;14.30;50.01
46111;BME280;31849;55.992;37.252;2023-06-22T03:17:10;99272.22;;;14.77;49.30
46111;BME280;31849;55.992;37.252;2023-06-22T03:22:14;99269.69;;;15.46;48.57
46111;BME280;31849;55.992;37.252;2023-06-22T03:27:17;99261.56;;;16.23;47.29
46111;BME280;31849;55.992;37.252;2023-06-22T03:32:22;99269.94;;;17.22;45.37
46111;BME280;31849;55.992;37.252;2023-06-22T03:37:26;99254.50;;;18.61;42.02
46111;BME280;31849;55.992;37.252;2023-06-22T03:42:30;99264.66;;;19.80;39.26
46111;BME280;31849;55.992;37.252;2023-06-22T03:47:35;99257.41;;;20.25;38.61
46111;BME280;31849;55.992;37.252;2023-06-22T03:52:39;99248.88;;;19.99;38.96
46111;BME280;31849;55.992;37.252;2023-06-22T03:57:44;99248.34;;;19.91;39.46
46111;BME280;31849;55.992;37.252;2023-06-22T04:02:49;99253.38;;;21.11;37.20
46111;BME280;31849;55.992;37.252;2023-06-22T04:07:52;99244.50;;;22.49;34.88
46111;BME280;31849;55.992;37.252;2023-06-22T04:12:56;99248.56;;;23.34;33.60
46111;BME280;31849;55.992;37.252;2023-06-22T04:18:01;99248.50;;;24.38;31.66
46111;BME280;31849;55.992;37.252;2023-06-22T04:23:05;99233.38;;;26.27;29.32
46111;BME280;31849;55.992;37.252;2023-06-22T04:28:09;99244.31;;;27.69;27.60
46111;BME280;31849;55.992;37.252;2023-06-22T04:33:16;99239.88;;;28.49;25.92
46111;BME280;31849;55.992;37.252;2023-06-22T04:38:20;99233.38;;;26.40;28.43
46111;BME280;31849;55.992;37.252;2023-06-22T04:43:25;99227.94;;;26.28;28.71
46111;BME280;31849;55.992;37.252;2023-06-22T04:48:34;99236.38;;;28.03;27.19
46111;BME280;31849;55.992;37.252;2023-06-22T04:53:38;99243.00;;;30.66;23.80
46111;BME280;31849;55.992;37.252;2023-06-22T04:58:43;99240.84;;;33.08;20.22
46111;BME280;31849;55.992;37.252;2023-06-22T05:03:47;99247.28;;;37.01;18.44
46111;BME280;31849;55.992;37.252;2023-06-22T05:08:52;99245.91;;;39.07;14.52
46111;BME280;31849;55.992;37.252;2023-06-22T05:13:59;99251.06;;;40.78;13.04
46111;BME280;31849;55.992;37.252;2023-06-22T05:19:04;99252.19;;;42.05;12.03
46111;BME280;31849;55.992;37.252;2023-06-22T05:24:08;99254.09;;;42.56;11.69
46111;BME280;31849;55.992;37.252;2023-06-22T05:29:12;99247.22;;;43.74;10.56
46111;BME280;31849;55.992;37.252;2023-06-22T05:34:17;99252.31;;;44.82;10.44
46111;BME280;31849;55.992;37.252;2023-06-22T05:39:21;99253.72;;;43.30;10.91
46111;BME280;31849;55.992;37.252;2023-06-22T05:44:24;99259.00;;;43.75;10.69
46111;BME280;31849;55.992;37.252;2023-06-22T05:49:29;99253.81;;;44.48;10.30
46111;BME280;31849;55.992;37.252;2023-06-22T05:54:35;99255.00;;;45.55;9.73
46111;BME280;31849;55.992;37.252;2023-06-22T05:59:40;99260.47;;;46.14;9.23
46111;BME280;31849;55.992;37.252;2023-06-22T06:04:45;99254.25;;;47.00;8.99
46111;BME280;31849;55.992;37.252;2023-06-22T06:09:49;99249.56;;;48.07;8.22
46111;BME280;31849;55.992;37.252;2023-06-22T06:14:52;99247.44;;;48.10;7.50
46111;BME280;31849;55.992;37.252;2023-06-22T06:19:59;99246.22;;;47.83;7.41
46111;BME280;31849;55.992;37.252;2023-06-22T06:25:05;99255.41;;;46.75;8.22
46111;BME280;31849;55.992;37.252;2023-06-22T06:30:10;99233.97;;;44.34;9.06
46111;BME280;31849;55.992;37.252;2023-06-22T06:35:15;99236.97;;;43.45;10.24
46111;BME280;31849;55.992;37.252;2023-06-22T06:40:19;99234.66;;;40.23;11.89
46111;BME280;31849;55.992;37.252;2023-06-22T06:45:23;99234.03;;;38.57;13.28
46111;BME280;31849;55.992;37.252;2023-06-22T06:50:33;99231.19;;;37.22;13.90
46111;BME280;31849;55.992;37.252;2023-06-22T06:55:37;99222.03;;;36.77;14.59
46111;BME280;31849;55.992;37.252;2023-06-22T07:00:40;99229.09;;;35.99;15.41
46111;BME280;31849;55.992;37.252;2023-06-22T07:05:47;99224.44;;;35.27;15.57
46111;BME280;31849;55.992;37.252;2023-06-22T07:10:51;99218.16;;;34.85;15.89
46111;BME280;31849;55.992;37.252;2023-06-22T07:15:55;99223.88;;;33.52;16.67
46111;BME280;31849;55.992;37.252;2023-06-22T07:21:00;99224.63;;;33.18;17.47
46111;BME280;31849;55.992;37.252;2023-06-22T07:26:05;99221.53;;;33.31;17.52
46111;BME280;31849;55.992;37.252;2023-06-22T07:31:10;99213.81;;;33.00;17.52
46111;BME280;31849;55.992;37.252;2023-06-22T07:36:16;99206.84;;;32.16;18.23
46111;BME280;31849;55.992;37.252;2023-06-22T07:41:19;99205.19;;;31.09;19.16
46111;BME280;31849;55.992;37.252;2023-06-22T07:46:23;99204.94;;;29.80;20.89
46111;BME280;31849;55.992;37.252;2023-06-22T07:51:28;99206.78;;;30.41;19.96
46111;BME280;31849;55.992;37.252;2023-06-22T07:56:32;99202.19;;;31.51;19.25
46111;BME280;31849;55.992;37.252;2023-06-22T08:01:35;99206.41;;;30.85;20.21
46111;BME280;31849;55.992;37.252;2023-06-22T08:06:41;99192.00;;;30.86;20.05
46111;BME280;31849;55.992;37.252;2023-06-22T08:11:45;99177.75;;;30.95;19.66
46111;BME280;31849;55.992;37.252;2023-06-22T08:16:50;99188.53;;;31.05;19.85
46111;BME280;31849;55.992;37.252;2023-06-22T08:21:55;99190.09;;;31.84;19.32
46111;BME280;31849;55.992;37.252;2023-06-22T08:26:59;99192.28;;;33.00;18.65
46111;BME280;31849;55.992;37.252;2023-06-22T08:32:03;99183.06;;;32.85;18.77
46111;BME280;31849;55.992;37.252;2023-06-22T08:37:08;99197.66;;;32.82;18.44
46111;BME280;31849;55.992;37.252;2023-06-22T08:42:12;99180.44;;;33.11;18.63
46111;BME280;31849;55.992;37.252;2023-06-22T08:47:15;99176.41;;;33.15;18.33
46111;BME280;31849;55.992;37.252;2023-06-22T08:52:20;99163.75;;;32.25;18.69
46111;BME280;31849;55.992;37.252;2023-06-22T08:57:25;99142.06;;;31.99;19.07
46111;BME280;31849;55.992;37.252;2023-06-22T09:02:29;99149.34;;;31.89;19.54
46111;BME280;31849;55.992;37.252;2023-06-22T09:07:35;99156.03;;;31.18;20.71
46111;BME280;31849;55.992;37.252;2023-06-22T09:12:39;99141.31;;;30.83;20.60
46111;BME280;31849;55.992;37.252;2023-06-22T09:17:43;99139.22;;;30.16;21.76
46111;BME280;31849;55.992;37.252;2023-06-22T09:22:50;99133.94;;;29.95;21.88
46111;BME280;31849;55.992;37.252;2023-06-22T09:27:54;99122.38;;;30.05;22.50
46111;BME280;31849;55.992;37.252;2023-06-22T09:32:57;99118.88;;;30.04;22.18
46111;BME280;31849;55.992;37.252;2023-06-22T09:38:03;99121.59;;;30.24;21.42
46111;BME280;31849;55.992;37.252;2023-06-22T09:43:07;99118.03;;;30.13;22.40
46111;BME280;31849;55.992;37.252;2023-06-22T09:48:10;99120.56;;;30.15;22.15
46111;BME280;31849;55.992;37.252;2023-06-22T09:53:15;99110.72;;;30.15;21.83
46111;BME280;31849;55.992;37.252;2023-06-22T09:58:19;99110.22;;;29.60;22.15
46111;BME280;31849;55.992;37.252;2023-06-22T10:03:23;99103.66;;;29.74;22.33
46111;BME280;31849;55.992;37.252;2023-06-22T10:08:28;99088.81;;;29.70;22.79
46111;BME280;31849;55.992;37.252;2023-06-22T10:13:32;99084.28;;;29.08;22.99
46111;BME280;31849;55.992;37.252;2023-06-22T10:18:35;99077.16;;;29.50;22.83
46111;BME280;31849;55.992;37.252;2023-06-22T10:23:40;99067.66;;;29.67;22.42
46111;BME280;31849;55.992;37.252;2023-06-22T10:28:44;99073.94;;;29.87;21.89
46111;BME280;31849;55.992;37.252;2023-06-22T10:33:48;99063.44;;;30.14;21.63
46111;BME280;31849;55.992;37.252;2023-06-22T10:38:54;99064.25;;;29.95;22.01
46111;BME280;31849;55.992;37.252;2023-06-22T10:43:57;99051.13;;;29.61;21.95
46111;BME280;31849;55.992;37.252;2023-06-22T10:49:01;99059.16;;;29.52;22.81
46111;BME280;31849;55.992;37.252;2023-06-22T10:54:07;99056.19;;;29.03;23.06
46111;BME280;31849;55.992;37.252;2023-06-22T10:59:11;99050.44;;;29.07;23.44
46111;BME280;31849;55.992;37.252;2023-06-22T11:04:14;99040.00;;;29.56;22.91
46111;BME280;31849;55.992;37.252;2023-06-22T11:09:21;99031.69;;;29.28;23.85
46111;BME280;31849;55.992;37.252;2023-06-22T11:14:29;99024.78;;;29.05;23.68
46111;BME280;31849;55.992;37.252;2023-06-22T11:19:33;99023.06;;;28.73;23.80
46111;BME280;31849;55.992;37.252;2023-06-22T11:24:38;99015.31;;;28.58;24.17
46111;BME280;31849;55.992;37.252;2023-06-22T11:29:41;99005.81;;;28.87;24.66
46111;BME280;31849;55.992;37.252;2023-06-22T11:34:45;98998.69;;;28.55;24.64
46111;BME280;31849;55.992;37.252;2023-06-22T11:39:50;98989.09;;;28.52;24.72
46111;BME280;31849;55.992;37.252;2023-06-22T11:45:07;98988.47;;;28.60;24.74
46111;BME280;31849;55.992;37.252;2023-06-22T11:50:11;98977.78;;;28.60;24.44
46111;BME280;31849;55.992;37.252;2023-06-22T11:55:16;98976.03;;;29.01;24.32
46111;BME280;31849;55.992;37.252;2023-06-22T12:00:20;98974.03;;;28.93;24.54
46111;BME280;31849;55.992;37.252;2023-06-22T12:05:31;98960.00;;;28.59;24.60
46111;BME280;31849;55.992;37.252;2023-06-22T12:10:36;98958.66;;;28.65;24.69
46111;BME280;31849;55.992;37.252;2023-06-22T12:15:39;98951.41;;;28.76;24.60
46111;BME280;31849;55.992;37.252;2023-06-22T12:20:43;98940.66;;;29.28;24.23
46111;BME280;31849;55.992;37.252;2023-06-22T12:25:48;98939.84;;;29.28;23.38
46111;BME280;31849;55.992;37.252;2023-06-22T12:30:52;98929.44;;;29.44;23.35
46111;BME280;31849;55.992;37.252;2023-06-22T12:35:55;98934.66;;;29.05;24.25
46111;BME280;31849;55.992;37.252;2023-06-22T12:41:00;98914.63;;;29.00;24.14
46111;BME280;31849;55.992;37.252;2023-06-22T12:46:04;98925.81;;;29.15;23.49
46111;BME280;31849;55.992;37.252;2023-06-22T12:51:08;98921.16;;;29.17;23.45
46111;BME280;31849;55.992;37.252;2023-06-22T12:56:13;98911.28;;;29.07;22.97
46111;BME280;31849;55.992;37.252;2023-06-22T13:01:16;98903.66;;;29.03;23.37
46111;BME280;31849;55.992;37.252;2023-06-22T13:06:20;98897.97;;;28.86;23.50
46111;BME280;31849;55.992;37.252;2023-06-22T13:11:25;98892.75;;;28.64;23.70
46111;BME280;31849;55.992;37.252;2023-06-22T13:16:29;98888.28;;;28.64;24.10
46111;BME280;31849;55.992;37.252;2023-06-22T13:21:33;98891.94;;;28.63;23.73
46111;BME280;31849;55.992;37.252;2023-06-22T13:26:38;98875.81;;;28.32;24.00
46111;BME280;31849;55.992;37.252;2023-06-22T13:31:42;98879.59;;;28.72;23.86
46111;BME280;31849;55.992;37.252;2023-06-22T13:36:46;98876.84;;;28.62;23.43
46111;BME280;31849;55.992;37.252;2023-06-22T13:41:51;98874.78;;;28.45;24.31
46111;BME280;31849;55.992;37.252;2023-06-22T13:46:54;98870.34;;;28.55;24.03
46111;BME280;31849;55.992;37.252;2023-06-22T13:51:58;98870.56;;;28.52;24.23
46111;BME280;31849;55.992;37.252;2023-06-22T13:57:03;98867.13;;;28.40;23.30
46111;BME280;31849;55.992;37.252;2023-06-22T14:02:07;98862.13;;;28.25;24.54
46111;BME280;31849;55.992;37.252;2023-06-22T14:07:11;98868.97;;;28.18;24.31
46111;BME280;31849;55.992;37.252;2023-06-22T14:12:18;98864.47;;;28.19;24.44
46111;BME280;31849;55.992;37.252;2023-06-22T14:17:22;98868.97;;;28.18;23.72
46111;BME280;31849;55.992;37.252;2023-06-22T14:22:28;98865.34;;;28.19;23.80
46111;BME280;31849;55.992;37.252;2023-06-22T14:27:33;98862.78;;;28.39;23.71
46111;BME280;31849;55.992;37.252;2023-06-22T14:32:37;98857.59;;;28.47;23.60
46111;BME280;31849;55.992;37.252;2023-06-22T14:37:40;98850.38;;;28.38;24.39
46111;BME280;31849;55.992;37.252;2023-06-22T14:42:45;98853.97;;;28.48;23.84
46111;BME280;31849;55.992;37.252;2023-06-22T14:47:49;98840.97;;;28.65;23.44
46111;BME280;31849;55.992;37.252;2023-06-22T14:52:53;98826.28;;;28.80;22.60
46111;BME280;31849;55.992;37.252;2023-06-22T14:57:58;98816.84;;;28.55;23.25
46111;BME280;31849;55.992;37.252;2023-06-22T15:03:01;98837.72;;;28.61;23.54
46111;BME280;31849;55.992;37.252;2023-06-22T15:08:07;98829.09;;;28.57;23.39
46111;BME280;31849;55.992;37.252;2023-06-22T15:13:14;98835.28;;;28.58;23.37
46111;BME280;31849;55.992;37.252;2023-06-22T15:18:19;98830.31;;;28.53;23.20
46111;BME280;31849;55.992;37.252;2023-06-22T15:23:23;98828.47;;;28.44;23.08
46111;BME280;31849;55.992;37.252;2023-06-22T15:28:29;98817.28;;;28.29;23.51
46111;BME280;31849;55.992;37.252;2023-06-22T15:33:34;98815.53;;;28.18;23.93
46111;BME280;31849;55.992;37.252;2023-06-22T15:38:39;98816.22;;;28.20;24.22
46111;BME280;31849;55.992;37.252;2023-06-22T15:43:44;98807.50;;;28.18;23.66
46111;BME280;31849;55.992;37.252;2023-06-22T15:48:47;98807.66;;;28.17;23.80
46111;BME280;31849;55.992;37.252;2023-06-22T15:53:53;98799.44;;;28.39;23.94
46111;BME280;31849;55.992;37.252;2023-06-22T15:59:01;98799.22;;;28.52;23.46
46111;BME280;31849;55.992;37.252;2023-06-22T16:04:05;98821.66;;;28.30;24.86
46111;BME280;31849;55.992;37.252;2023-06-22T16:09:08;98824.94;;;27.59;26.24
46111;BME280;31849;55.992;37.252;2023-06-22T16:14:13;98832.84;;;26.72;27.62
46111;BME280;31849;55.992;37.252;2023-06-22T16:19:17;98830.47;;;25.75;28.80
46111;BME280;31849;55.992;37.252;2023-06-22T16:24:21;98840.91;;;24.80;30.84
46111;BME280;31849;55.992;37.252;2023-06-22T16:29:25;98812.66;;;24.14;31.82
46111;BME280;31849;55.992;37.252;2023-06-22T16:34:29;98824.25;;;23.73;32.53
46111;BME280;31849;55.992;37.252;2023-06-22T16:39:33;98826.34;;;23.55;32.71
46111;BME280;31849;55.992;37.252;2023-06-22T16:44:38;98830.16;;;23.24;33.39
46111;BME280;31849;55.992;37.252;2023-06-22T16:49:41;98841.47;;;22.84;34.15
46111;BME280;31849;55.992;37.252;2023-06-22T16:54:46;98841.94;;;22.62;34.69
46111;BME280;31849;55.992;37.252;2023-06-22T17:00:06;98842.66;;;22.21;36.15
46111;BME280;31849;55.992;37.252;2023-06-22T17:05:13;98842.94;;;22.16;35.94
46111;BME280;31849;55.992;37.252;2023-06-22T17:10:20;98834.53;;;21.79;36.41
46111;BME280;31849;55.992;37.252;2023-06-22T17:15:29;98817.88;;;21.47;35.46
46111;BME280;31849;55.992;37.252;2023-06-22T17:20:39;98839.97;;;21.30;36.58
46111;BME280;31849;55.992;37.252;2023-06-22T17:25:43;98847.31;;;21.24;36.23
46111;BME280;31849;55.992;37.252;2023-06-22T17:31:08;98828.13;;;20.89;36.12
46111;BME280;31849;55.992;37.252;2023-06-22T17:36:13;98842.78;;;20.79;35.96
46111;BME280;31849;55.992;37.252;2023-06-22T17:41:17;98830.69;;;20.57;36.38
46111;BME280;31849;55.992;37.252;2023-06-22T17:46:22;98845.47;;;20.44;36.93
46111;BME280;31849;55.992;37.252;2023-06-22T17:51:29;98833.78;;;20.32;37.12
46111;BME280;31849;55.992;37.252;2023-06-22T17:56:33;98832.63;;;20.20;37.45
46111;BME280;31849;55.992;37.252;2023-06-22T18:01:39;98831.97;;;19.99;37.93
46111;BME280;31849;55.992;37.252;2023-06-22T18:06:44;98844.31;;;19.98;37.77
46111;BME280;31849;55.992;37.252;2023-06-22T18:11:49;98840.59;;;19.85;37.98
46111;BME280;31849;55.992;37.252;2023-06-22T18:16:54;98826.94;;;19.58;38.00
46111;BME280;31849;55.992;37.252;2023-06-22T18:21:58;98823.63;;;19.54;38.07
46111;BME280;31849;55.992;37.252;2023-06-22T18:27:04;98835.44;;;19.28;38.29
46111;BME280;31849;55.992;37.252;2023-06-22T18:32:09;98832.47;;;19.17;38.20
46111;BME280;31849;55.992;37.252;2023-06-22T18:37:13;98827.22;;;18.97;39.18
46111;BME280;31849;55.992;37.252;2023-06-22T18:42:18;98818.09;;;19.05;38.62
46111;BME280;31849;55.992;37.252;2023-06-22T18:47:28;98832.97;;;18.87;39.17
46111;BME280;31849;55.992;37.252;2023-06-22T18:52:32;98836.25;;;18.92;38.71
46111;BME280;31849;55.992;37.252;2023-06-22T18:57:36;98818.28;;;18.81;39.04
46111;BME280;31849;55.992;37.252;2023-06-22T19:02:43;98828.16;;;18.76;39.30
46111;BME280;31849;55.992;37.252;2023-06-22T19:07:58;98824.41;;;18.62;39.49
46111;BME280;31849;55.992;37.252;2023-06-22T19:13:25;98822.28;;;18.71;38.97
46111;BME280;31849;55.992;37.252;2023-06-22T19:18:32;98824.69;;;18.56;40.12
46111;BME280;31849;55.992;37.252;2023-06-22T19:23:37;98819.91;;;18.45;39.54
46111;BME280;31849;55.992;37.252;2023-06-22T19:28:45;98823.47;;;18.24;40.31
46111;BME280;31849;55.992;37.252;2023-06-22T19:33:52;98799.38;;;18.14;40.43
46111;BME280;31849;55.992;37.252;2023-06-22T19:38:57;98806.91;;;18.22;40.15
46111;BME280;31849;55.992;37.252;2023-06-22T19:44:01;98815.53;;;18.25;40.05
46111;BME280;31849;55.992;37.252;2023-06-22T19:49:07;98791.66;;;18.09;40.39
46111;BME280;31849;55.992;37.252;2023-06-22T19:54:11;98804.63;;;18.14;40.38
46111;BME280;31849;55.992;37.252;2023-06-22T19:59:22;98786.94;;;17.97;41.19
46111;BME280;31849;55.992;37.252;2023-06-22T20:04:30;98793.38;;;17.90;41.30
46111;BME280;31849;55.992;37.252;2023-06-22T20:09:34;98778.34;;;17.93;41.08
46111;BME280;31849;55.992;37.252;2023-06-22T20:14:41;98777.47;;;17.93;41.17
46111;BME280;31849;55.992;37.252;2023-06-22T20:19:53;98771.94;;;17.79;42.23
46111;BME280;31849;55.992;37.252;2023-06-22T20:24:56;98771.53;;;17.88;41.46
46111;BME280;31849;55.992;37.252;2023-06-22T20:30:12;98755.59;;;17.92;41.64
46111;BME280;31849;55.992;37.252;2023-06-22T20:35:18;98738.00;;;17.93;41.84
46111;BME280;31849;55.992;37.252;2023-06-22T20:40:24;98747.25;;;17.81;42.14
46111;BME280;31849;55.992;37.252;2023-06-22T20:45:29;98745.13;;;17.91;41.95
46111;BME280;31849;55.992;37.252;2023-06-22T20:50:38;98731.75;;;17.75;42.53
46111;BME280;31849;55.992;37.252;2023-06-22T20:55:42;98724.75;;;17.75;42.54
46111;BME280;31849;55.992;37.252;2023-06-22T21:00:46;98713.28;;;17.76;42.67
46111;BME280;31849;55.992;37.252;2023-06-22T21:05:51;98712.31;;;17.79;43.08
46111;BME280;31849;55.992;37.252;2023-06-22T21:10:56;98712.31;;;17.79;42.82
46111;BME280;31849;55.992;37.252;2023-06-22T21:16:00;98710.72;;;17.75;43.04
46111;BME280;31849;55.992;37.252;2023-06-22T21:21:05;98711.59;;;17.75;43.00
46111;BME280;31849;55.992;37.252;2023-06-22T21:26:09;98702.13;;;17.71;43.04
46111;BME280;31849;55.992;37.252;2023-06-22T21:31:12;98707.19;;;17.76;43.36
46111;BME280;31849;55.992;37.252;2023-06-22T21:36:17;98695.22;;;17.69;43.64
46111;BME280;31849;55.992;37.252;2023-06-22T21:41:21;98683.00;;;17.68;43.62
46111;BME280;31849;55.992;37.252;2023-06-22T21:46:25;98676.19;;;17.64;43.83
46111;BME280;31849;55.992;37.252;2023-06-22T21:51:30;98670.94;;;17.64;44.12
46111;BME280;31849;55.992;37.252;2023-06-22T21:56:36;98663.34;;;17.76;43.87
46111;BME280;31849;55.992;37.252;2023-06-22T22:01:40;98654.06;;;17.68;44.08
46111;BME280;31849;55.992;37.252;2023-06-22T22:06:45;98667.16;;;17.69;44.03
46111;BME280;31849;55.992;37.252;2023-06-22T22:11:52;98659.88;;;17.55;44.37
46111;BME280;31849;55.992;37.252;2023-06-22T22:16:56;98653.91;;;17.52;44.47
46111;BME280;31849;55.992;37.252;2023-06-22T22:22:03;98651.44;;;17.68;44.33
46111;BME280;31849;55.992;37.252;2023-06-22T22:27:06;98638.50;;;17.63;44.06
46111;BME280;31849;55.992;37.252;2023-06-22T22:32:10;98645.75;;;17.58;44.55
46111;BME280;31849;55.992;37.252;2023-06-22T22:37:15;98645.28;;;17.48;44.93
46111;BME280;31849;55.992;37.252;2023-06-22T22:42:18;98655.09;;;17.45;44.95
46111;BME280;31849;55.992;37.252;2023-06-22T22:47:22;98612.53;;;17.36;44.92
46111;BME280;31849;55.992;37.252;2023-06-22T22:52:28;98595.78;;;17.18;44.92
46111;BME280;31849;55.992;37.252;2023-06-22T22:57:33;98636.78;;;17.22;45.24
46111;BME280;31849;55.992;37.252;2023-06-22T23:02:36;98647.03;;;17.29;44.88
46111;BME280;31849;55.992;37.252;2023-06-22T23:07:42;98644.25;;;17.32;44.83
46111;BME280;31849;55.992;37.252;2023-06-22T23:12:46;98650.25;;;17.35;44.78
46111;BME280;31849;55.992;37.252;2023-06-22T23:17:52;98648.13;;;17.44;44.84
46111;BME280;31849;55.992;37.252;2023-06-22T23:22:56;98647.72;;;17.32;45.04
46111;BME280;31849;55.992;37.252;2023-06-22T23:28:00;98640.44;;;17.18;45.70
46111;BME280;31849;55.992;37.252;2023-06-22T23:33:04;98626.75;;;17.12;45.87
46111;BME280;31849;55.992;37.252;2023-06-22T23:38:09;98620.75;;;17.08;46.02
46111;BME280;31849;55.992;37.252;2023-06-22T23:43:13;98614.44;;;17.12;45.91
46111;BME280;31849;55.992;37.252;2023-06-22T23:48:17;98599.19;;;17.20;45.81
46111;BME280;31849;55.992;37.252;2023-06-22T23:53:21;98594.41;;;17.10;46.25
46111;BME280;31849;55.992;37.252;2023-06-22T23:58:25;98595.09;;;17.15;46.07
